createdAt,value
2023-02-26T00:01:43.271Z,28.80
2023-02-26T00:04:11.423Z,34.38
2023-02-26T00:06:52.441Z,31.67
2023-02-26T00:09:21.405Z,31.60
2023-02-26T00:11:50.046Z,33.42
2023-02-26T00:14:18.099Z,32.38
2023-02-26T00:16:54.151Z,40.13
2023-02-26T00:19:21.698Z,35.28
2023-02-26T00:21:49.291Z,32.88
2023-02-26T00:24:16.607Z,34.38
2023-02-26T00:26:43.882Z,31.40
2023-02-26T00:29:11.512Z,32.47
2023-02-26T00:31:39.260Z,33.80
2023-02-26T00:34:06.803Z,38.42
2023-02-26T00:37:53.115Z,36.38
2023-02-26T00:40:41.423Z,34.40
2023-02-26T00:43:26.684Z,38.85
2023-02-26T00:46:22.152Z,36.20
2023-02-26T00:49:17.949Z,38.97
2023-02-26T00:51:59.150Z,32.85
2023-02-26T00:54:30.201Z,33.97
2023-02-26T00:56:59.741Z,34.60
2023-02-26T00:59:27.126Z,34.03
2023-02-26T01:01:56.526Z,34.55
2023-02-26T01:04:25.230Z,32.70
2023-02-26T01:06:58.248Z,36.83
2023-02-26T01:09:35.494Z,30.77
2023-02-26T01:12:09.523Z,31.65
2023-02-26T01:14:37.763Z,31.75
2023-02-26T01:17:32.162Z,34.47
2023-02-26T01:20:37.414Z,36.33
2023-02-26T01:23:15.371Z,32.42
2023-02-26T01:26:05.075Z,32.13
2023-02-26T01:28:33.160Z,31.63
2023-02-26T01:31:05.846Z,32.42
2023-02-26T01:33:47.677Z,38.38
2023-02-26T01:36:24.905Z,32.00
2023-02-26T01:39:17.252Z,33.78
2023-02-26T01:41:55.295Z,33.65
2023-02-26T01:45:36.201Z,34.10
2023-02-26T01:48:19.820Z,32.75
2023-02-26T01:50:47.069Z,33.13
2023-02-26T01:53:18.084Z,34.33
2023-02-26T01:55:51.896Z,33.45
2023-02-26T01:58:21.189Z,29.83
2023-02-26T02:00:48.374Z,31.52
2023-02-26T02:03:16.087Z,36.50
2023-02-26T02:05:52.443Z,34.08
2023-02-26T02:08:21.449Z,38.28
2023-02-26T02:10:52.563Z,37.85
2023-02-26T02:13:52.248Z,34.15
2023-02-26T02:17:46.622Z,37.40
2023-02-26T02:20:38.355Z,30.08
2023-02-26T02:23:30.245Z,37.15
2023-02-26T02:26:47.919Z,32.35
2023-02-26T02:32:39.010Z,32.53
2023-02-26T02:35:46.318Z,42.60
2023-02-26T02:38:25.120Z,35.33
2023-02-26T02:41:13.535Z,34.45
2023-02-26T02:43:43.224Z,36.10
2023-02-26T02:46:25.002Z,33.95
2023-02-26T02:49:10.092Z,32.95
2023-02-26T02:51:55.430Z,34.25
2023-02-26T02:54:41.676Z,35.65
2023-02-26T02:57:34.868Z,37.95
2023-02-26T03:00:10.626Z,41.63
2023-02-26T03:03:17.865Z,38.58
2023-02-26T03:05:45.061Z,38.53
2023-02-26T03:08:21.377Z,33.05
2023-02-26T03:10:48.618Z,32.63
2023-02-26T03:13:23.928Z,32.85
2023-02-26T03:19:43.497Z,29.67
2023-02-26T03:22:43.545Z,39.75
2023-02-26T03:25:31.420Z,36.13
2023-02-26T03:28:57.042Z,32.55
2023-02-26T03:31:37.767Z,34.53
2023-02-26T03:34:26.347Z,30.35
2023-02-26T03:37:09.109Z,25.52
2023-02-26T03:39:47.224Z,26.25
2023-02-26T03:42:34.773Z,30.67
2023-02-26T03:45:14.183Z,29.75
2023-02-26T03:47:47.079Z,24.40
2023-02-26T03:50:28.269Z,25.52
2023-02-26T03:54:04.752Z,23.17
2023-02-26T03:56:46.968Z,27.55
2023-02-26T03:59:20.558Z,25.40
2023-02-26T04:02:51.508Z,35.28
2023-02-26T04:05:26.706Z,40.83
2023-02-26T04:07:54.913Z,35.50
2023-02-26T04:10:40.291Z,45.40
2023-02-26T04:13:08.125Z,48.17
2023-02-26T04:15:35.420Z,44.15
2023-02-26T04:18:02.834Z,52.78
2023-02-26T04:20:30.157Z,65.25
2023-02-26T04:22:57.588Z,58.63
2023-02-26T04:25:24.938Z,60.35
2023-02-26T04:27:53.333Z,65.70
2023-02-26T04:30:20.665Z,64.20
2023-02-26T04:32:48.678Z,70.75
2023-02-26T04:35:16.366Z,69.18
2023-02-26T04:37:43.722Z,63.63
2023-02-26T04:40:12.443Z,70.20
2023-02-26T04:42:39.845Z,65.95
2023-02-26T04:45:08.005Z,69.30
2023-02-26T04:47:37.827Z,75.47
2023-02-26T04:50:06.091Z,73.13
2023-02-26T04:52:33.379Z,72.25
2023-02-26T04:55:00.727Z,79.43
2023-02-26T04:57:28.873Z,77.50
2023-02-26T04:59:56.159Z,81.97
2023-02-26T05:02:27.825Z,74.03
2023-02-26T05:04:55.075Z,85.88
2023-02-26T05:07:22.325Z,82.80
2023-02-26T05:09:50.220Z,79.93
2023-02-26T05:12:17.982Z,64.82
2023-02-26T05:14:45.170Z,42.38
2023-02-26T05:17:12.528Z,37.20
2023-02-26T05:19:40.089Z,31.27
2023-02-26T05:22:07.439Z,24.33
2023-02-26T05:24:35.165Z,19.20
2023-02-26T05:27:02.366Z,11.20
2023-02-26T05:29:31.210Z,7.53
2023-02-26T05:31:59.614Z,6.93
2023-02-26T05:34:26.953Z,6.45
2023-02-26T05:36:56.384Z,8.35
2023-02-26T05:39:23.624Z,6.30
2023-02-26T05:41:51.925Z,7.57
2023-02-26T05:44:19.227Z,7.07
2023-02-26T05:46:46.660Z,4.03
2023-02-26T05:49:13.882Z,4.50
2023-02-26T05:51:42.779Z,3.47
2023-02-26T05:54:11.332Z,4.55
2023-02-26T05:56:38.581Z,6.80
2023-02-26T05:59:06.397Z,3.22
2023-02-26T06:01:34.246Z,3.30
2023-02-26T06:04:01.568Z,4.13
2023-02-26T06:06:28.832Z,5.10
2023-02-26T06:08:56.084Z,3.92
2023-02-26T06:11:23.371Z,4.80
2023-02-26T06:13:50.876Z,2.60
2023-02-26T06:16:20.352Z,2.40
2023-02-26T06:18:48.543Z,2.03
2023-02-26T06:21:17.511Z,1.83
2023-02-26T06:23:45.743Z,1.75
2023-02-26T06:26:12.961Z,2.60
2023-02-26T06:28:40.297Z,4.47
2023-02-26T06:31:07.420Z,2.70
2023-02-26T06:33:34.578Z,3.22
2023-02-26T06:36:02.928Z,0.95
2023-02-26T06:38:30.133Z,1.17
2023-02-26T06:40:57.612Z,1.25
2023-02-26T06:43:24.936Z,2.03
2023-02-26T06:45:52.236Z,1.60
2023-02-26T06:48:19.467Z,2.17
2023-02-26T06:50:46.649Z,1.45
2023-02-26T06:53:13.841Z,2.00
2023-02-26T06:55:51.046Z,2.00
2023-02-26T06:58:20.100Z,1.92
2023-02-26T07:00:47.825Z,2.03
2023-02-26T07:03:18.184Z,5.97
2023-02-26T07:05:46.573Z,2.17
2023-02-26T07:08:14.542Z,7.95
2023-02-26T07:10:42.811Z,1.65
2023-02-26T07:13:09.941Z,1.77
2023-02-26T07:15:37.112Z,2.15
2023-02-26T07:18:04.663Z,2.40
2023-02-26T07:20:32.817Z,3.22
2023-02-26T07:23:00.802Z,1.27
2023-02-26T07:25:27.985Z,1.70
2023-02-26T07:27:56.279Z,2.45
2023-02-26T07:30:23.486Z,2.78
2023-02-26T07:32:50.659Z,1.35
2023-02-26T07:35:18.930Z,3.15
2023-02-26T07:37:46.291Z,1.42
2023-02-26T07:40:14.495Z,2.15
2023-02-26T07:42:42.144Z,1.52
2023-02-26T07:45:10.313Z,1.88
2023-02-26T07:47:37.880Z,1.75
2023-02-26T07:50:06.257Z,3.25
2023-02-26T07:52:33.444Z,3.60
2023-02-26T07:55:00.652Z,1.98
2023-02-26T07:57:27.949Z,2.55
2023-02-26T07:59:55.217Z,5.80
2023-02-26T08:02:23.483Z,1.65
2023-02-26T08:04:50.867Z,0.75
2023-02-26T08:07:18.829Z,5.93
2023-02-26T08:09:46.157Z,1.08
2023-02-26T08:12:13.401Z,1.85
2023-02-26T08:14:41.645Z,0.45
2023-02-26T08:17:10.366Z,1.38
2023-02-26T08:19:38.312Z,1.58
2023-02-26T08:22:06.140Z,3.83
2023-02-26T08:24:33.561Z,1.23
2023-02-26T08:27:00.761Z,2.38
2023-02-26T08:29:27.993Z,2.33
2023-02-26T08:31:55.354Z,1.55
2023-02-26T08:34:23.269Z,2.55
2023-02-26T08:36:50.683Z,1.55
2023-02-26T08:39:17.882Z,1.25
2023-02-26T08:41:45.110Z,1.13
2023-02-26T08:44:12.396Z,1.95
2023-02-26T08:46:39.704Z,2.13
2023-02-26T08:49:07.399Z,1.77
2023-02-26T08:51:34.783Z,1.80
2023-02-26T08:54:02.381Z,1.73
2023-02-26T08:56:29.677Z,3.10
2023-02-26T08:58:57.296Z,1.95
2023-02-26T09:01:24.904Z,2.80
2023-02-26T09:03:52.302Z,2.10
2023-02-26T09:06:19.492Z,2.42
2023-02-26T09:08:46.721Z,1.20
2023-02-26T09:11:13.980Z,4.43
2023-02-26T09:13:41.704Z,1.40
2023-02-26T09:16:09.236Z,1.05
2023-02-26T09:18:36.949Z,2.10
2023-02-26T09:21:04.791Z,1.27
2023-02-26T09:23:32.077Z,1.67
2023-02-26T09:25:59.436Z,1.17
2023-02-26T09:28:26.736Z,2.88
2023-02-26T09:30:57.231Z,1.10
2023-02-26T09:33:24.506Z,3.03
2023-02-26T09:35:52.693Z,1.35
2023-02-26T09:38:20.724Z,2.70
2023-02-26T09:41:10.158Z,1.05
2023-02-26T09:44:06.508Z,1.23
2023-02-26T09:46:48.833Z,1.17
2023-02-26T09:49:50.832Z,2.30
2023-02-26T09:53:38.546Z,2.10
2023-02-26T09:56:17.576Z,2.10
2023-02-26T09:58:45.891Z,1.45
2023-02-26T10:01:35.381Z,2.13
2023-02-26T10:05:09.631Z,2.45
2023-02-26T10:07:59.849Z,3.28
2023-02-26T10:11:12.078Z,3.10
2023-02-26T10:13:58.327Z,3.63
2023-02-26T10:16:34.719Z,1.45
2023-02-26T10:19:14.514Z,2.33
2023-02-26T10:22:19.950Z,3.20
2023-02-26T10:27:55.494Z,1.30
2023-02-26T10:30:54.678Z,3.20
2023-02-26T10:33:39.699Z,4.10
2023-02-26T10:36:33.735Z,5.70
2023-02-26T10:39:31.837Z,3.10
2023-02-26T10:42:06.793Z,2.00
2023-02-26T10:44:52.065Z,3.20
2023-02-26T10:48:23.477Z,5.07
2023-02-26T10:50:59.422Z,2.70
2023-02-26T10:53:30.944Z,2.33
2023-02-26T10:56:12.474Z,2.83
2023-02-26T10:58:40.097Z,2.17
2023-02-26T11:01:23.752Z,3.83
2023-02-26T11:04:07.158Z,2.35
2023-02-26T11:06:47.530Z,2.88
2023-02-26T11:09:42.496Z,1.95
2023-02-26T11:12:13.429Z,3.55
2023-02-26T11:14:43.726Z,2.97
2023-02-26T11:17:27.999Z,1.98
2023-02-26T11:20:15.235Z,2.70
2023-02-26T11:22:50.162Z,2.85
2023-02-26T11:25:29.785Z,2.75
2023-02-26T11:28:21.234Z,2.60
2023-02-26T11:30:54.081Z,3.00
2023-02-26T11:33:37.564Z,4.28
2023-02-26T11:36:15.896Z,2.70
2023-02-26T11:38:53.405Z,3.42
2023-02-26T11:41:22.733Z,3.13
2023-02-26T11:44:08.440Z,4.72
2023-02-26T11:46:51.140Z,3.63
2023-02-26T11:49:24.051Z,3.65
2023-02-26T11:52:28.866Z,3.20
2023-02-26T11:55:04.503Z,3.30
2023-02-26T11:57:33.585Z,3.45
2023-02-26T12:00:18.807Z,3.55
2023-02-26T12:02:46.374Z,4.07
2023-02-26T12:05:18.331Z,4.05
2023-02-26T12:07:46.941Z,3.80
2023-02-26T12:10:23.824Z,3.67
2023-02-26T12:14:00.978Z,3.10
2023-02-26T12:16:54.181Z,4.70
2023-02-26T12:23:00.695Z,5.10
2023-02-26T12:26:08.530Z,3.55
2023-02-26T12:29:13.705Z,3.00
2023-02-26T12:32:06.142Z,4.80
2023-02-26T12:35:15.466Z,5.22
2023-02-26T12:38:16.364Z,3.58
2023-02-26T12:41:03.846Z,3.47
2023-02-26T12:43:50.703Z,5.55
2023-02-26T12:46:54.357Z,3.70
2023-02-26T12:49:55.256Z,3.17
2023-02-26T12:52:56.733Z,3.22
2023-02-26T12:56:08.572Z,3.45
2023-02-26T12:59:21.620Z,3.10
2023-02-26T13:02:56.114Z,3.85
2023-02-26T13:05:59.041Z,4.13
2023-02-26T13:12:46.879Z,3.95
2023-02-26T13:15:58.898Z,4.10
2023-02-26T13:18:41.760Z,3.83
2023-02-26T13:21:22.925Z,4.80
2023-02-26T13:24:05.406Z,4.13
2023-02-26T13:26:34.644Z,4.28
2023-02-26T13:29:36.381Z,3.63
2023-02-26T13:32:14.762Z,4.85
2023-02-26T13:35:41.893Z,3.97
2023-02-26T13:38:32.261Z,6.38
2023-02-26T13:41:33.733Z,8.48
2023-02-26T13:44:42.310Z,5.25
2023-02-26T13:48:06.255Z,5.28
2023-02-26T13:50:57.653Z,5.25
2023-02-26T13:53:47.992Z,3.60
2023-02-26T13:56:42.310Z,3.80
2023-02-26T13:59:12.526Z,3.80
2023-02-26T14:01:54.641Z,5.63
2023-02-26T14:04:24.660Z,3.20
2023-02-26T14:06:57.258Z,4.25
2023-02-26T14:09:25.785Z,4.47
2023-02-26T14:11:55.901Z,6.60
2023-02-26T14:14:26.441Z,4.38
2023-02-26T14:17:08.993Z,4.40
2023-02-26T14:20:22.233Z,3.65
2023-02-26T14:23:09.894Z,6.18
2023-02-26T14:25:49.572Z,4.28
2023-02-26T14:28:26.264Z,5.07
2023-02-26T14:31:03.372Z,3.72
2023-02-26T14:33:39.622Z,4.07
2023-02-26T14:36:35.553Z,6.25
2023-02-26T14:39:09.200Z,3.40
2023-02-26T14:41:41.367Z,4.00
2023-02-26T14:44:22.489Z,5.28
2023-02-26T14:46:51.403Z,4.78
2023-02-26T14:49:35.921Z,5.05
2023-02-26T14:52:44.051Z,4.18
2023-02-26T14:55:12.232Z,3.80
2023-02-26T14:58:07.708Z,4.35
2023-02-26T15:00:41.100Z,4.70
2023-02-26T15:03:43.241Z,4.65
2023-02-26T15:06:57.736Z,5.00
2023-02-26T15:10:11.528Z,4.80
2023-02-26T15:13:41.167Z,4.00
2023-02-26T15:16:36.685Z,4.05
2023-02-26T15:19:44.934Z,5.05
2023-02-26T15:22:44.903Z,3.08
2023-02-26T15:25:36.085Z,2.92
2023-02-26T15:28:10.806Z,2.50
2023-02-26T15:30:38.505Z,3.80
2023-02-26T15:33:20.451Z,3.38
2023-02-26T15:35:53.498Z,3.53
2023-02-26T15:38:21.439Z,5.18
2023-02-26T15:40:53.325Z,3.63
2023-02-26T15:43:28.665Z,4.18
2023-02-26T15:45:58.549Z,3.60
2023-02-26T15:48:37.436Z,3.22
2023-02-26T15:51:09.221Z,3.90
2023-02-26T15:53:44.985Z,3.25
2023-02-26T15:56:30.127Z,2.95
2023-02-26T15:59:17.272Z,3.03
2023-02-26T16:04:17.657Z,2.97
2023-02-26T16:06:52.809Z,3.33
2023-02-26T16:09:36.705Z,3.60
2023-02-26T16:12:38.594Z,4.07
2023-02-26T16:15:16.064Z,2.38
2023-02-26T16:17:48.422Z,2.92
2023-02-26T16:20:24.969Z,3.17
2023-02-26T16:23:12.025Z,3.10
2023-02-26T16:28:43.849Z,3.15
2023-02-26T16:31:21.148Z,3.40
2023-02-26T16:34:31.339Z,3.05
2023-02-26T16:37:30.336Z,3.15
2023-02-26T16:40:35.960Z,3.03
2023-02-26T16:43:49.772Z,4.18
2023-02-26T16:46:45.878Z,3.30
2023-02-26T16:49:27.165Z,3.13
2023-02-26T16:51:56.788Z,3.80
2023-02-26T16:54:40.708Z,5.30
2023-02-26T16:57:41.011Z,2.88
2023-02-26T17:00:27.637Z,4.53
2023-02-26T17:02:57.361Z,3.22
2023-02-26T17:05:31.257Z,3.35
2023-02-26T17:08:18.566Z,2.97
2023-02-26T17:10:55.815Z,6.30
2023-02-26T17:13:33.957Z,4.75
2023-02-26T17:16:10.128Z,4.47
2023-02-26T17:18:37.687Z,3.83
2023-02-26T17:21:06.117Z,5.90
2023-02-26T17:23:38.014Z,6.50
2023-02-26T17:26:06.137Z,5.57
2023-02-26T17:28:40.763Z,5.35
2023-02-26T17:31:09.125Z,5.28
2023-02-26T17:33:38.441Z,5.28
2023-02-26T17:36:07.376Z,4.70
2023-02-26T17:38:34.609Z,5.72
2023-02-26T17:41:02.127Z,4.95
2023-02-26T17:43:29.340Z,7.97
2023-02-26T17:45:56.611Z,4.43
2023-02-26T17:48:24.344Z,4.78
2023-02-26T17:50:57.500Z,4.38
2023-02-26T17:53:33.846Z,6.18
2023-02-26T17:56:01.201Z,5.75
2023-02-26T17:58:34.530Z,4.57
2023-02-26T18:01:04.069Z,5.60
2023-02-26T18:03:31.962Z,5.55
2023-02-26T18:05:59.788Z,5.47
2023-02-26T18:08:35.024Z,5.97
2023-02-26T18:11:04.113Z,4.75
2023-02-26T18:13:31.586Z,6.93
2023-02-26T18:16:02.044Z,5.90
2023-02-26T18:18:29.927Z,5.68
2023-02-26T18:20:57.534Z,5.35
2023-02-26T18:23:25.498Z,5.47
2023-02-26T18:25:54.853Z,5.38
2023-02-26T18:28:27.916Z,6.18
2023-02-26T18:30:57.971Z,4.90
2023-02-26T18:33:26.170Z,5.50
2023-02-26T18:35:57.172Z,5.53
2023-02-26T18:38:28.188Z,4.75
2023-02-26T18:40:55.983Z,5.07
2023-02-26T18:43:23.389Z,6.57
2023-02-26T18:45:52.376Z,5.05
2023-02-26T18:48:21.082Z,5.80
2023-02-26T18:50:49.851Z,5.93
2023-02-26T18:55:45.339Z,5.05
2023-02-26T18:58:13.157Z,6.63
2023-02-26T19:00:41.729Z,4.68
2023-02-26T19:03:09.294Z,4.82
2023-02-26T19:05:37.632Z,5.22
2023-02-26T19:08:06.134Z,4.03
2023-02-26T19:10:34.267Z,4.20
2023-02-26T19:13:02.528Z,3.50
2023-02-26T19:15:30.405Z,2.78
2023-02-26T19:17:57.695Z,3.80
2023-02-26T19:20:25.033Z,4.50
2023-02-26T19:22:52.283Z,3.67
2023-02-26T19:25:23.763Z,5.75
2023-02-26T19:27:53.455Z,4.95
2023-02-26T19:30:23.273Z,3.45
2023-02-26T19:32:51.886Z,5.43
2023-02-26T19:35:19.578Z,4.18
2023-02-26T19:37:47.964Z,4.30
2023-02-26T19:40:16.720Z,3.85
2023-02-26T19:45:13.808Z,4.80
2023-02-26T19:47:41.621Z,3.92
2023-02-26T19:50:11.211Z,3.85
2023-02-26T19:52:38.755Z,6.38
2023-02-26T19:55:08.381Z,4.80
2023-02-26T19:57:35.679Z,4.82
2023-02-26T20:00:05.210Z,6.68
2023-02-26T20:02:39.532Z,3.92
2023-02-26T20:05:11.464Z,5.43
2023-02-26T20:07:41.615Z,5.70
2023-02-26T20:10:10.461Z,5.00
2023-02-26T20:12:37.704Z,5.68
2023-02-26T20:15:08.266Z,5.00
2023-02-26T20:17:35.452Z,4.50
2023-02-26T20:20:02.726Z,5.57
2023-02-26T20:22:31.943Z,8.68
2023-02-26T20:24:59.361Z,4.32
2023-02-26T20:27:26.691Z,4.00
2023-02-26T20:29:53.918Z,7.03
2023-02-26T20:32:25.384Z,4.18
2023-02-26T20:34:52.752Z,5.40
2023-02-26T20:37:19.975Z,5.15
2023-02-26T20:39:47.406Z,4.80
2023-02-26T20:42:14.694Z,4.57
2023-02-26T20:44:41.801Z,7.35
2023-02-26T20:47:09.244Z,7.38
2023-02-26T20:49:36.463Z,4.75
2023-02-26T20:52:04.604Z,6.65
2023-02-26T20:54:31.869Z,5.13
2023-02-26T20:56:59.153Z,3.20
2023-02-26T20:59:26.446Z,5.03
2023-02-26T21:01:53.874Z,3.70
2023-02-26T21:04:21.402Z,4.43
2023-02-26T21:06:48.724Z,5.43
2023-02-26T21:09:16.717Z,6.20
2023-02-26T21:11:44.718Z,5.72
2023-02-26T21:14:12.107Z,5.10
2023-02-26T21:16:42.584Z,5.95
2023-02-26T21:19:09.836Z,4.40
2023-02-26T21:21:37.142Z,5.30
2023-02-26T21:24:05.001Z,4.47
2023-02-26T21:26:34.268Z,3.20
2023-02-26T21:29:02.732Z,4.80
2023-02-26T21:31:30.340Z,3.80
2023-02-26T21:34:00.668Z,4.28
2023-02-26T21:36:29.991Z,6.03
2023-02-26T21:38:57.348Z,4.35
2023-02-26T21:41:25.867Z,4.22
2023-02-26T21:46:22.774Z,3.83
2023-02-26T21:48:51.448Z,6.95
2023-02-26T21:51:21.290Z,5.65
2023-02-26T21:53:49.670Z,5.70
2023-02-26T21:56:17.277Z,5.85
2023-02-26T21:58:44.582Z,5.38
2023-02-26T22:01:12.115Z,4.10
2023-02-26T22:03:39.718Z,5.20
2023-02-26T22:06:07.165Z,5.38
2023-02-26T22:08:34.486Z,4.80
2023-02-26T22:11:01.781Z,6.32
2023-02-26T22:13:29.286Z,4.15
2023-02-26T22:15:56.702Z,8.50
2023-02-26T22:18:24.010Z,6.30
2023-02-26T22:20:51.256Z,7.05
2023-02-26T22:23:18.583Z,8.38
2023-02-26T22:25:46.148Z,10.80
2023-02-26T22:28:13.803Z,8.43
2023-02-26T22:30:42.089Z,9.20
2023-02-26T22:33:09.266Z,9.88
2023-02-26T22:35:36.509Z,7.60
2023-02-26T22:38:03.867Z,8.38
2023-02-26T22:40:32.219Z,7.65
2023-02-26T22:42:59.502Z,7.57
2023-02-26T22:45:26.830Z,7.80
2023-02-26T22:47:54.313Z,9.48
2023-02-26T22:50:21.494Z,7.07
2023-02-26T22:52:49.267Z,6.15
2023-02-26T22:55:17.316Z,5.88
2023-02-26T22:57:44.703Z,5.70
2023-02-26T23:00:18.710Z,6.10
2023-02-26T23:02:50.639Z,5.90
2023-02-26T23:05:19.799Z,8.15
2023-02-26T23:07:47.490Z,5.30
2023-02-26T23:10:19.596Z,5.63
2023-02-26T23:12:47.113Z,5.13
2023-02-26T23:15:15.633Z,4.97
2023-02-26T23:17:43.332Z,7.30
2023-02-26T23:20:13.932Z,4.10
2023-02-26T23:22:43.803Z,5.82
2023-02-26T23:25:12.373Z,5.78
2023-02-26T23:27:40.513Z,5.47
2023-02-26T23:30:11.822Z,5.53
2023-02-26T23:32:39.340Z,4.57
2023-02-26T23:35:07.222Z,5.25
2023-02-26T23:37:34.566Z,5.53
2023-02-26T23:40:01.817Z,5.22
2023-02-26T23:42:29.108Z,4.40
2023-02-26T23:44:56.295Z,5.63
2023-02-26T23:47:23.548Z,4.88
2023-02-26T23:49:50.939Z,4.32
2023-02-26T23:52:18.464Z,6.40
2023-02-26T23:54:46.064Z,5.35
2023-02-26T23:57:13.299Z,6.03
2023-02-26T23:59:40.547Z,6.15
